sensor_id;sensor_type;location;lat;lon;timestamp;P1;durP1;ratioP1;P2;durP2;ratioP2
46653;SDS011;38960;51.074;17.004;2023-09-08T00:02:02;11.75;;;6.68;;
46653;SDS011;38960;51.074;17.004;2023-09-08T00:04:28;9.20;;;6.60;;
46653;SDS011;38960;51.074;17.004;2023-09-08T00:06:53;13.48;;;6.22;;
46653;SDS011;38960;51.074;17.004;2023-09-08T00:09:19;10.52;;;6.50;;
46653;SDS011;38960;51.074;17.004;2023-09-08T00:11:45;10.85;;;6.45;;
46653;SDS011;38960;51.074;17.004;2023-09-08T00:14:10;9.05;;;5.75;;
46653;SDS011;38960;51.074;17.004;2023-09-08T00:16:35;11.15;;;6.70;;
46653;SDS011;38960;51.074;17.004;2023-09-08T00:19:02;15.60;;;7.15;;
46653;SDS011;38960;51.074;17.004;2023-09-08T00:21:28;13.90;;;6.88;;
46653;SDS011;38960;51.074;17.004;2023-09-08T00:23:53;10.15;;;6.78;;
46653;SDS011;38960;51.074;17.004;2023-09-08T00:26:19;9.45;;;7.07;;
46653;SDS011;38960;51.074;17.004;2023-09-08T00:28:46;12.52;;;6.57;;
46653;SDS011;38960;51.074;17.004;2023-09-08T00:31:12;13.98;;;6.35;;
46653;SDS011;38960;51.074;17.004;2023-09-08T00:33:38;8.70;;;6.45;;
46653;SDS011;38960;51.074;17.004;2023-09-08T00:36:03;11.43;;;7.13;;
46653;SDS011;38960;51.074;17.004;2023-09-08T00:38:29;12.80;;;7.00;;
46653;SDS011;38960;51.074;17.004;2023-09-08T00:40:55;13.68;;;7.45;;
46653;SDS011;38960;51.074;17.004;2023-09-08T00:43:21;9.85;;;6.50;;
46653;SDS011;38960;51.074;17.004;2023-09-08T00:45:46;11.20;;;6.88;;
46653;SDS011;38960;51.074;17.004;2023-09-08T00:48:12;8.90;;;6.20;;
46653;SDS011;38960;51.074;17.004;2023-09-08T00:50:38;9.10;;;6.57;;
46653;SDS011;38960;51.074;17.004;2023-09-08T00:53:04;18.20;;;7.90;;
46653;SDS011;38960;51.074;17.004;2023-09-08T00:55:30;8.32;;;6.75;;
46653;SDS011;38960;51.074;17.004;2023-09-08T00:57:56;8.88;;;6.82;;
46653;SDS011;38960;51.074;17.004;2023-09-08T01:00:24;11.65;;;6.97;;
46653;SDS011;38960;51.074;17.004;2023-09-08T01:02:50;9.65;;;7.03;;
46653;SDS011;38960;51.074;17.004;2023-09-08T01:05:15;8.98;;;7.35;;
46653;SDS011;38960;51.074;17.004;2023-09-08T01:07:41;9.10;;;6.90;;
46653;SDS011;38960;51.074;17.004;2023-09-08T01:10:07;11.25;;;7.40;;
46653;SDS011;38960;51.074;17.004;2023-09-08T01:12:33;10.00;;;7.47;;
46653;SDS011;38960;51.074;17.004;2023-09-08T01:15:00;13.10;;;7.75;;
46653;SDS011;38960;51.074;17.004;2023-09-08T01:17:26;10.40;;;7.47;;
46653;SDS011;38960;51.074;17.004;2023-09-08T01:19:53;10.85;;;7.00;;
46653;SDS011;38960;51.074;17.004;2023-09-08T01:22:35;12.38;;;8.30;;
46653;SDS011;38960;51.074;17.004;2023-09-08T01:27:56;12.60;;;8.02;;
46653;SDS011;38960;51.074;17.004;2023-09-08T01:30:24;13.00;;;7.72;;
46653;SDS011;38960;51.074;17.004;2023-09-08T01:32:51;10.02;;;8.18;;
46653;SDS011;38960;51.074;17.004;2023-09-08T01:35:18;16.73;;;8.23;;
46653;SDS011;38960;51.074;17.004;2023-09-08T01:37:47;10.40;;;7.60;;
46653;SDS011;38960;51.074;17.004;2023-09-08T01:40:14;9.75;;;8.05;;
46653;SDS011;38960;51.074;17.004;2023-09-08T01:42:40;10.77;;;8.43;;
46653;SDS011;38960;51.074;17.004;2023-09-08T01:45:07;8.75;;;7.63;;
46653;SDS011;38960;51.074;17.004;2023-09-08T01:47:33;11.20;;;7.60;;
46653;SDS011;38960;51.074;17.004;2023-09-08T01:50:01;8.75;;;7.55;;
46653;SDS011;38960;51.074;17.004;2023-09-08T01:52:27;9.70;;;7.80;;
46653;SDS011;38960;51.074;17.004;2023-09-08T01:54:53;10.68;;;7.45;;
46653;SDS011;38960;51.074;17.004;2023-09-08T01:57:19;13.35;;;8.00;;
46653;SDS011;38960;51.074;17.004;2023-09-08T01:59:44;8.85;;;7.18;;
46653;SDS011;38960;51.074;17.004;2023-09-08T02:02:10;14.40;;;8.00;;
46653;SDS011;38960;51.074;17.004;2023-09-08T02:04:36;11.05;;;7.80;;
46653;SDS011;38960;51.074;17.004;2023-09-08T02:07:02;10.20;;;7.82;;
46653;SDS011;38960;51.074;17.004;2023-09-08T02:09:35;9.85;;;7.35;;
46653;SDS011;38960;51.074;17.004;2023-09-08T02:12:02;9.52;;;7.57;;
46653;SDS011;38960;51.074;17.004;2023-09-08T02:14:28;11.88;;;7.78;;
46653;SDS011;38960;51.074;17.004;2023-09-08T02:16:54;11.68;;;7.95;;
46653;SDS011;38960;51.074;17.004;2023-09-08T02:19:22;10.50;;;8.45;;
46653;SDS011;38960;51.074;17.004;2023-09-08T02:21:48;12.30;;;7.57;;
46653;SDS011;38960;51.074;17.004;2023-09-08T02:24:14;9.55;;;8.55;;
46653;SDS011;38960;51.074;17.004;2023-09-08T02:26:39;12.48;;;8.45;;
46653;SDS011;38960;51.074;17.004;2023-09-08T02:29:05;9.80;;;8.10;;
46653;SDS011;38960;51.074;17.004;2023-09-08T02:31:31;10.52;;;8.43;;
46653;SDS011;38960;51.074;17.004;2023-09-08T02:33:57;11.43;;;7.53;;
46653;SDS011;38960;51.074;17.004;2023-09-08T02:36:22;12.40;;;8.23;;
46653;SDS011;38960;51.074;17.004;2023-09-08T02:38:52;9.95;;;7.97;;
46653;SDS011;38960;51.074;17.004;2023-09-08T02:41:18;13.75;;;8.10;;
46653;SDS011;38960;51.074;17.004;2023-09-08T02:43:44;10.25;;;8.07;;
46653;SDS011;38960;51.074;17.004;2023-09-08T02:46:10;13.38;;;9.13;;
46653;SDS011;38960;51.074;17.004;2023-09-08T02:48:35;13.02;;;8.98;;
46653;SDS011;38960;51.074;17.004;2023-09-08T02:51:01;11.07;;;7.65;;
46653;SDS011;38960;51.074;17.004;2023-09-08T02:53:26;14.48;;;8.73;;
46653;SDS011;38960;51.074;17.004;2023-09-08T02:55:55;14.82;;;9.75;;
46653;SDS011;38960;51.074;17.004;2023-09-08T02:58:21;12.57;;;9.25;;
46653;SDS011;38960;51.074;17.004;2023-09-08T03:00:46;13.50;;;8.77;;
46653;SDS011;38960;51.074;17.004;2023-09-08T03:03:12;17.27;;;9.05;;
46653;SDS011;38960;51.074;17.004;2023-09-08T03:05:37;15.13;;;9.20;;
46653;SDS011;38960;51.074;17.004;2023-09-08T03:08:03;10.57;;;9.48;;
46653;SDS011;38960;51.074;17.004;2023-09-08T03:10:30;11.35;;;9.10;;
46653;SDS011;38960;51.074;17.004;2023-09-08T03:12:59;16.67;;;9.82;;
46653;SDS011;38960;51.074;17.004;2023-09-08T03:15:25;17.13;;;8.25;;
46653;SDS011;38960;51.074;17.004;2023-09-08T03:17:53;10.25;;;7.93;;
46653;SDS011;38960;51.074;17.004;2023-09-08T03:20:19;16.77;;;10.60;;
46653;SDS011;38960;51.074;17.004;2023-09-08T03:22:45;19.00;;;10.00;;
46653;SDS011;38960;51.074;17.004;2023-09-08T03:25:15;14.63;;;9.63;;
46653;SDS011;38960;51.074;17.004;2023-09-08T03:27:41;14.10;;;7.75;;
46653;SDS011;38960;51.074;17.004;2023-09-08T03:30:07;11.00;;;7.82;;
46653;SDS011;38960;51.074;17.004;2023-09-08T03:32:33;18.48;;;7.35;;
46653;SDS011;38960;51.074;17.004;2023-09-08T03:34:59;17.02;;;8.23;;
46653;SDS011;38960;51.074;17.004;2023-09-08T03:37:25;12.68;;;8.82;;
46653;SDS011;38960;51.074;17.004;2023-09-08T03:39:54;13.82;;;9.52;;
46653;SDS011;38960;51.074;17.004;2023-09-08T03:42:19;16.98;;;15.27;;
46653;SDS011;38960;51.074;17.004;2023-09-08T03:44:45;19.83;;;15.02;;
46653;SDS011;38960;51.074;17.004;2023-09-08T03:47:11;16.70;;;15.05;;
46653;SDS011;38960;51.074;17.004;2023-09-08T03:49:36;16.88;;;15.25;;
46653;SDS011;38960;51.074;17.004;2023-09-08T03:52:02;25.05;;;15.73;;
46653;SDS011;38960;51.074;17.004;2023-09-08T03:54:28;17.58;;;16.05;;
46653;SDS011;38960;51.074;17.004;2023-09-08T03:56:54;19.50;;;14.95;;
46653;SDS011;38960;51.074;17.004;2023-09-08T03:59:20;20.08;;;15.38;;
46653;SDS011;38960;51.074;17.004;2023-09-08T04:01:45;18.08;;;16.23;;
46653;SDS011;38960;51.074;17.004;2023-09-08T04:04:11;17.85;;;16.00;;
46653;SDS011;38960;51.074;17.004;2023-09-08T04:06:36;17.20;;;15.57;;
46653;SDS011;38960;51.074;17.004;2023-09-08T04:09:02;15.77;;;12.98;;
46653;SDS011;38960;51.074;17.004;2023-09-08T04:11:27;14.00;;;12.40;;
46653;SDS011;38960;51.074;17.004;2023-09-08T04:13:53;15.20;;;13.68;;
46653;SDS011;38960;51.074;17.004;2023-09-08T04:16:18;17.00;;;14.13;;
46653;SDS011;38960;51.074;17.004;2023-09-08T04:18:44;15.90;;;13.27;;
46653;SDS011;38960;51.074;17.004;2023-09-08T04:21:10;15.40;;;12.10;;
46653;SDS011;38960;51.074;17.004;2023-09-08T04:23:36;15.45;;;13.35;;
46653;SDS011;38960;51.074;17.004;2023-09-08T04:26:02;14.93;;;13.38;;
46653;SDS011;38960;51.074;17.004;2023-09-08T04:28:28;15.98;;;13.18;;
46653;SDS011;38960;51.074;17.004;2023-09-08T04:30:53;17.52;;;13.15;;
46653;SDS011;38960;51.074;17.004;2023-09-08T04:33:19;26.70;;;14.30;;
46653;SDS011;38960;51.074;17.004;2023-09-08T04:35:44;16.10;;;14.35;;
46653;SDS011;38960;51.074;17.004;2023-09-08T04:38:10;17.35;;;15.32;;
46653;SDS011;38960;51.074;17.004;2023-09-08T04:40:36;18.70;;;15.32;;
46653;SDS011;38960;51.074;17.004;2023-09-08T04:43:05;17.48;;;15.88;;
46653;SDS011;38960;51.074;17.004;2023-09-08T04:45:32;30.77;;;14.55;;
46653;SDS011;38960;51.074;17.004;2023-09-08T04:47:58;20.85;;;14.20;;
46653;SDS011;38960;51.074;17.004;2023-09-08T04:50:24;17.50;;;14.85;;
46653;SDS011;38960;51.074;17.004;2023-09-08T04:52:49;17.77;;;16.08;;
46653;SDS011;38960;51.074;17.004;2023-09-08T04:55:15;19.40;;;15.18;;
46653;SDS011;38960;51.074;17.004;2023-09-08T04:57:41;18.60;;;12.77;;
46653;SDS011;38960;51.074;17.004;2023-09-08T05:00:07;16.60;;;14.40;;
46653;SDS011;38960;51.074;17.004;2023-09-08T05:02:33;19.20;;;14.10;;
46653;SDS011;38960;51.074;17.004;2023-09-08T05:04:59;15.18;;;13.80;;
46653;SDS011;38960;51.074;17.004;2023-09-08T05:07:25;15.93;;;14.52;;
46653;SDS011;38960;51.074;17.004;2023-09-08T05:09:52;16.63;;;14.95;;
46653;SDS011;38960;51.074;17.004;2023-09-08T05:12:18;16.67;;;14.93;;
46653;SDS011;38960;51.074;17.004;2023-09-08T05:14:44;15.68;;;14.20;;
46653;SDS011;38960;51.074;17.004;2023-09-08T05:17:09;18.02;;;15.50;;
46653;SDS011;38960;51.074;17.004;2023-09-08T05:19:35;16.48;;;14.93;;
46653;SDS011;38960;51.074;17.004;2023-09-08T05:22:01;17.58;;;15.77;;
46653;SDS011;38960;51.074;17.004;2023-09-08T05:24:28;26.98;;;24.77;;
46653;SDS011;38960;51.074;17.004;2023-09-08T05:26:54;18.80;;;16.58;;
46653;SDS011;38960;51.074;17.004;2023-09-08T05:29:20;18.38;;;16.48;;
46653;SDS011;38960;51.074;17.004;2023-09-08T05:31:45;20.55;;;17.42;;
46653;SDS011;38960;51.074;17.004;2023-09-08T05:34:11;16.85;;;15.32;;
46653;SDS011;38960;51.074;17.004;2023-09-08T05:36:37;22.52;;;16.77;;
46653;SDS011;38960;51.074;17.004;2023-09-08T05:39:05;18.50;;;16.55;;
46653;SDS011;38960;51.074;17.004;2023-09-08T05:41:31;15.95;;;14.35;;
46653;SDS011;38960;51.074;17.004;2023-09-08T05:43:57;14.77;;;12.88;;
46653;SDS011;38960;51.074;17.004;2023-09-08T05:46:23;16.08;;;14.00;;
46653;SDS011;38960;51.074;17.004;2023-09-08T05:48:48;16.58;;;14.77;;
46653;SDS011;38960;51.074;17.004;2023-09-08T05:51:14;16.73;;;13.60;;
46653;SDS011;38960;51.074;17.004;2023-09-08T05:53:41;25.77;;;23.42;;
46653;SDS011;38960;51.074;17.004;2023-09-08T05:56:07;24.95;;;21.15;;
46653;SDS011;38960;51.074;17.004;2023-09-08T05:58:33;20.08;;;15.38;;
46653;SDS011;38960;51.074;17.004;2023-09-08T06:01:03;19.52;;;13.77;;
46653;SDS011;38960;51.074;17.004;2023-09-08T06:03:29;19.92;;;15.73;;
46653;SDS011;38960;51.074;17.004;2023-09-08T06:05:55;21.58;;;15.23;;
46653;SDS011;38960;51.074;17.004;2023-09-08T06:08:21;24.17;;;19.67;;
46653;SDS011;38960;51.074;17.004;2023-09-08T06:10:47;25.45;;;18.33;;
46653;SDS011;38960;51.074;17.004;2023-09-08T06:13:13;19.10;;;17.25;;
46653;SDS011;38960;51.074;17.004;2023-09-08T06:15:41;23.20;;;13.43;;
46653;SDS011;38960;51.074;17.004;2023-09-08T06:18:06;19.98;;;11.57;;
46653;SDS011;38960;51.074;17.004;2023-09-08T06:20:32;23.92;;;15.77;;
46653;SDS011;38960;51.074;17.004;2023-09-08T06:22:58;19.15;;;12.13;;
46653;SDS011;38960;51.074;17.004;2023-09-08T06:25:24;19.77;;;12.23;;
46653;SDS011;38960;51.074;17.004;2023-09-08T06:27:49;17.13;;;15.35;;
46653;SDS011;38960;51.074;17.004;2023-09-08T06:30:15;13.07;;;10.02;;
46653;SDS011;38960;51.074;17.004;2023-09-08T06:32:42;18.77;;;10.75;;
46653;SDS011;38960;51.074;17.004;2023-09-08T06:35:08;16.52;;;9.43;;
46653;SDS011;38960;51.074;17.004;2023-09-08T06:37:37;20.48;;;10.65;;
46653;SDS011;38960;51.074;17.004;2023-09-08T06:40:04;16.73;;;10.20;;
46653;SDS011;38960;51.074;17.004;2023-09-08T06:42:31;15.38;;;10.40;;
46653;SDS011;38960;51.074;17.004;2023-09-08T06:45:06;16.27;;;11.43;;
46653;SDS011;38960;51.074;17.004;2023-09-08T06:47:33;15.60;;;11.20;;
46653;SDS011;38960;51.074;17.004;2023-09-08T06:49:58;16.58;;;13.55;;
46653;SDS011;38960;51.074;17.004;2023-09-08T06:52:24;21.13;;;14.70;;
46653;SDS011;38960;51.074;17.004;2023-09-08T06:54:49;18.88;;;11.63;;
46653;SDS011;38960;51.074;17.004;2023-09-08T06:57:17;16.58;;;9.60;;
46653;SDS011;38960;51.074;17.004;2023-09-08T06:59:44;16.35;;;9.57;;
46653;SDS011;38960;51.074;17.004;2023-09-08T07:02:09;10.70;;;9.15;;
46653;SDS011;38960;51.074;17.004;2023-09-08T07:04:35;16.98;;;9.23;;
46653;SDS011;38960;51.074;17.004;2023-09-08T07:07:01;15.65;;;9.93;;
46653;SDS011;38960;51.074;17.004;2023-09-08T07:09:36;11.95;;;9.65;;
46653;SDS011;38960;51.074;17.004;2023-09-08T07:14:32;15.52;;;10.68;;
46653;SDS011;38960;51.074;17.004;2023-09-08T07:16:58;16.40;;;10.77;;
46653;SDS011;38960;51.074;17.004;2023-09-08T07:19:24;15.00;;;11.13;;
46653;SDS011;38960;51.074;17.004;2023-09-08T07:21:51;14.63;;;10.02;;
46653;SDS011;38960;51.074;17.004;2023-09-08T07:24:16;18.92;;;11.20;;
46653;SDS011;38960;51.074;17.004;2023-09-08T07:26:42;16.73;;;10.40;;
46653;SDS011;38960;51.074;17.004;2023-09-08T07:29:08;19.90;;;11.52;;
46653;SDS011;38960;51.074;17.004;2023-09-08T07:31:33;14.18;;;9.43;;
46653;SDS011;38960;51.074;17.004;2023-09-08T07:33:59;16.00;;;10.55;;
46653;SDS011;38960;51.074;17.004;2023-09-08T07:36:26;18.08;;;9.68;;
46653;SDS011;38960;51.074;17.004;2023-09-08T07:38:52;15.23;;;10.30;;
46653;SDS011;38960;51.074;17.004;2023-09-08T07:41:18;14.57;;;10.05;;
46653;SDS011;38960;51.074;17.004;2023-09-08T07:43:43;13.25;;;9.93;;
46653;SDS011;38960;51.074;17.004;2023-09-08T07:46:12;15.52;;;9.93;;
46653;SDS011;38960;51.074;17.004;2023-09-08T07:48:37;10.65;;;9.55;;
46653;SDS011;38960;51.074;17.004;2023-09-08T07:51:03;18.20;;;10.80;;
46653;SDS011;38960;51.074;17.004;2023-09-08T07:53:28;12.10;;;9.65;;
46653;SDS011;38960;51.074;17.004;2023-09-08T07:55:54;13.95;;;10.27;;
46653;SDS011;38960;51.074;17.004;2023-09-08T07:58:21;14.80;;;10.52;;
46653;SDS011;38960;51.074;17.004;2023-09-08T08:00:47;15.55;;;11.15;;
46653;SDS011;38960;51.074;17.004;2023-09-08T08:03:12;16.35;;;10.75;;
46653;SDS011;38960;51.074;17.004;2023-09-08T08:05:38;17.30;;;11.32;;
46653;SDS011;38960;51.074;17.004;2023-09-08T08:08:04;11.88;;;10.30;;
46653;SDS011;38960;51.074;17.004;2023-09-08T08:10:29;13.65;;;10.05;;
46653;SDS011;38960;51.074;17.004;2023-09-08T08:12:55;13.10;;;11.68;;
46653;SDS011;38960;51.074;17.004;2023-09-08T08:15:21;12.20;;;10.65;;
46653;SDS011;38960;51.074;17.004;2023-09-08T08:17:47;13.35;;;10.82;;
46653;SDS011;38960;51.074;17.004;2023-09-08T08:20:13;15.95;;;11.60;;
46653;SDS011;38960;51.074;17.004;2023-09-08T08:22:45;11.18;;;9.98;;
46653;SDS011;38960;51.074;17.004;2023-09-08T08:27:38;11.93;;;10.73;;
46653;SDS011;38960;51.074;17.004;2023-09-08T08:30:04;10.88;;;9.70;;
46653;SDS011;38960;51.074;17.004;2023-09-08T08:32:30;11.73;;;10.07;;
46653;SDS011;38960;51.074;17.004;2023-09-08T08:34:56;11.55;;;10.07;;
46653;SDS011;38960;51.074;17.004;2023-09-08T08:37:22;13.70;;;10.68;;
46653;SDS011;38960;51.074;17.004;2023-09-08T08:39:48;15.82;;;10.75;;
46653;SDS011;38960;51.074;17.004;2023-09-08T08:42:14;17.75;;;16.05;;
46653;SDS011;38960;51.074;17.004;2023-09-08T08:44:40;10.35;;;8.05;;
46653;SDS011;38960;51.074;17.004;2023-09-08T08:47:07;10.68;;;8.80;;
46653;SDS011;38960;51.074;17.004;2023-09-08T08:49:33;13.35;;;11.80;;
46653;SDS011;38960;51.074;17.004;2023-09-08T08:52:00;10.68;;;9.05;;
46653;SDS011;38960;51.074;17.004;2023-09-08T08:54:29;14.80;;;9.68;;
46653;SDS011;38960;51.074;17.004;2023-09-08T08:56:54;10.40;;;8.68;;
46653;SDS011;38960;51.074;17.004;2023-09-08T08:59:20;9.90;;;8.10;;
46653;SDS011;38960;51.074;17.004;2023-09-08T09:01:47;11.23;;;9.40;;
46653;SDS011;38960;51.074;17.004;2023-09-08T09:04:13;18.50;;;8.98;;
46653;SDS011;38960;51.074;17.004;2023-09-08T09:06:39;10.68;;;9.05;;
46653;SDS011;38960;51.074;17.004;2023-09-08T09:09:04;40.15;;;35.92;;
46653;SDS011;38960;51.074;17.004;2023-09-08T09:11:30;24.42;;;22.65;;
46653;SDS011;38960;51.074;17.004;2023-09-08T09:13:57;35.53;;;32.97;;
46653;SDS011;38960;51.074;17.004;2023-09-08T09:16:23;27.55;;;25.65;;
46653;SDS011;38960;51.074;17.004;2023-09-08T09:18:55;29.90;;;27.80;;
46653;SDS011;38960;51.074;17.004;2023-09-08T09:21:22;27.88;;;25.67;;
46653;SDS011;38960;51.074;17.004;2023-09-08T09:23:48;27.85;;;25.67;;
46653;SDS011;38960;51.074;17.004;2023-09-08T09:26:22;26.25;;;24.27;;
46653;SDS011;38960;51.074;17.004;2023-09-08T09:28:49;27.77;;;25.60;;
46653;SDS011;38960;51.074;17.004;2023-09-08T09:31:17;28.27;;;26.00;;
46653;SDS011;38960;51.074;17.004;2023-09-08T09:33:43;27.08;;;25.17;;
46653;SDS011;38960;51.074;17.004;2023-09-08T09:36:09;27.73;;;25.45;;
46653;SDS011;38960;51.074;17.004;2023-09-08T09:38:34;27.42;;;25.23;;
46653;SDS011;38960;51.074;17.004;2023-09-08T09:41:00;26.58;;;24.52;;
46653;SDS011;38960;51.074;17.004;2023-09-08T09:43:25;25.35;;;23.65;;
46653;SDS011;38960;51.074;17.004;2023-09-08T09:45:52;24.55;;;22.55;;
46653;SDS011;38960;51.074;17.004;2023-09-08T09:48:19;25.55;;;23.55;;
46653;SDS011;38960;51.074;17.004;2023-09-08T09:53:12;12.70;;;6.10;;
46653;SDS011;38960;51.074;17.004;2023-09-08T09:55:39;9.30;;;6.33;;
46653;SDS011;38960;51.074;17.004;2023-09-08T09:58:05;10.82;;;6.68;;
46653;SDS011;38960;51.074;17.004;2023-09-08T10:00:32;9.18;;;6.00;;
46653;SDS011;38960;51.074;17.004;2023-09-08T10:02:58;9.52;;;7.05;;
46653;SDS011;38960;51.074;17.004;2023-09-08T10:05:24;11.07;;;5.80;;
46653;SDS011;38960;51.074;17.004;2023-09-08T10:07:50;10.43;;;6.55;;
46653;SDS011;38960;51.074;17.004;2023-09-08T10:10:16;7.78;;;6.45;;
46653;SDS011;38960;51.074;17.004;2023-09-08T10:12:43;8.38;;;6.82;;
46653;SDS011;38960;51.074;17.004;2023-09-08T10:15:10;39.03;;;35.95;;
46653;SDS011;38960;51.074;17.004;2023-09-08T10:17:36;14.15;;;13.05;;
46653;SDS011;38960;51.074;17.004;2023-09-08T10:20:02;15.18;;;13.88;;
46653;SDS011;38960;51.074;17.004;2023-09-08T10:22:36;39.90;;;36.97;;
46653;SDS011;38960;51.074;17.004;2023-09-08T10:25:12;15.32;;;13.48;;
46653;SDS011;38960;51.074;17.004;2023-09-08T10:27:38;7.80;;;6.53;;
46653;SDS011;38960;51.074;17.004;2023-09-08T10:30:04;8.77;;;6.65;;
46653;SDS011;38960;51.074;17.004;2023-09-08T10:32:32;42.40;;;19.42;;
46653;SDS011;38960;51.074;17.004;2023-09-08T10:34:58;29.23;;;26.63;;
46653;SDS011;38960;51.074;17.004;2023-09-08T10:37:26;7.53;;;6.25;;
46653;SDS011;38960;51.074;17.004;2023-09-08T10:39:54;7.53;;;6.32;;
46653;SDS011;38960;51.074;17.004;2023-09-08T10:42:24;9.15;;;6.13;;
46653;SDS011;38960;51.074;17.004;2023-09-08T10:44:56;8.75;;;6.10;;
46653;SDS011;38960;51.074;17.004;2023-09-08T10:47:30;10.45;;;6.53;;
46653;SDS011;38960;51.074;17.004;2023-09-08T10:50:19;8.20;;;5.65;;
46653;SDS011;38960;51.074;17.004;2023-09-08T10:53:12;9.85;;;6.20;;
46653;SDS011;38960;51.074;17.004;2023-09-08T10:55:41;7.03;;;5.43;;
46653;SDS011;38960;51.074;17.004;2023-09-08T11:00:46;12.20;;;6.00;;
46653;SDS011;38960;51.074;17.004;2023-09-08T11:03:13;7.95;;;5.43;;
46653;SDS011;38960;51.074;17.004;2023-09-08T11:05:41;10.05;;;5.50;;
46653;SDS011;38960;51.074;17.004;2023-09-08T11:08:06;10.00;;;5.60;;
46653;SDS011;38960;51.074;17.004;2023-09-08T11:10:32;12.32;;;6.03;;
46653;SDS011;38960;51.074;17.004;2023-09-08T11:12:58;11.48;;;6.60;;
46653;SDS011;38960;51.074;17.004;2023-09-08T11:15:25;7.47;;;6.07;;
46653;SDS011;38960;51.074;17.004;2023-09-08T11:17:50;7.65;;;6.85;;
46653;SDS011;38960;51.074;17.004;2023-09-08T11:20:25;13.32;;;11.35;;
46653;SDS011;38960;51.074;17.004;2023-09-08T11:22:51;29.30;;;26.20;;
46653;SDS011;38960;51.074;17.004;2023-09-08T11:25:16;15.77;;;14.40;;
46653;SDS011;38960;51.074;17.004;2023-09-08T11:27:42;16.70;;;15.27;;
46653;SDS011;38960;51.074;17.004;2023-09-08T11:30:11;16.83;;;15.18;;
46653;SDS011;38960;51.074;17.004;2023-09-08T11:32:39;10.63;;;6.68;;
46653;SDS011;38960;51.074;17.004;2023-09-08T11:35:05;9.75;;;5.93;;
46653;SDS011;38960;51.074;17.004;2023-09-08T11:37:38;9.82;;;8.20;;
46653;SDS011;38960;51.074;17.004;2023-09-08T11:40:04;13.03;;;10.60;;
46653;SDS011;38960;51.074;17.004;2023-09-08T11:42:40;18.05;;;16.50;;
46653;SDS011;38960;51.074;17.004;2023-09-08T11:45:12;14.15;;;12.23;;
46653;SDS011;38960;51.074;17.004;2023-09-08T11:47:41;15.90;;;14.47;;
46653;SDS011;38960;51.074;17.004;2023-09-08T11:50:08;18.23;;;16.52;;
46653;SDS011;38960;51.074;17.004;2023-09-08T11:52:37;11.65;;;10.23;;
46653;SDS011;38960;51.074;17.004;2023-09-08T11:55:03;13.02;;;12.02;;
46653;SDS011;38960;51.074;17.004;2023-09-08T11:57:29;15.20;;;14.10;;
46653;SDS011;38960;51.074;17.004;2023-09-08T11:59:55;17.80;;;15.98;;
46653;SDS011;38960;51.074;17.004;2023-09-08T12:02:21;9.65;;;5.40;;
46653;SDS011;38960;51.074;17.004;2023-09-08T12:04:46;8.15;;;4.10;;
46653;SDS011;38960;51.074;17.004;2023-09-08T12:07:12;12.52;;;4.95;;
46653;SDS011;38960;51.074;17.004;2023-09-08T12:09:40;7.43;;;4.90;;
46653;SDS011;38960;51.074;17.004;2023-09-08T12:12:10;6.15;;;5.20;;
46653;SDS011;38960;51.074;17.004;2023-09-08T12:14:43;7.15;;;4.82;;
46653;SDS011;38960;51.074;17.004;2023-09-08T12:17:08;8.75;;;4.85;;
46653;SDS011;38960;51.074;17.004;2023-09-08T12:19:34;7.75;;;5.03;;
46653;SDS011;38960;51.074;17.004;2023-09-08T12:22:04;9.20;;;4.70;;
46653;SDS011;38960;51.074;17.004;2023-09-08T12:27:35;8.80;;;5.78;;
46653;SDS011;38960;51.074;17.004;2023-09-08T12:30:01;10.13;;;5.07;;
46653;SDS011;38960;51.074;17.004;2023-09-08T12:32:30;6.35;;;4.50;;
46653;SDS011;38960;51.074;17.004;2023-09-08T12:34:57;5.70;;;4.35;;
46653;SDS011;38960;51.074;17.004;2023-09-08T12:37:27;7.53;;;4.63;;
46653;SDS011;38960;51.074;17.004;2023-09-08T12:39:56;5.72;;;4.28;;
46653;SDS011;38960;51.074;17.004;2023-09-08T12:42:22;6.28;;;4.28;;
46653;SDS011;38960;51.074;17.004;2023-09-08T12:44:51;10.93;;;4.30;;
46653;SDS011;38960;51.074;17.004;2023-09-08T12:47:17;6.90;;;4.38;;
46653;SDS011;38960;51.074;17.004;2023-09-08T12:49:42;5.95;;;4.40;;
46653;SDS011;38960;51.074;17.004;2023-09-08T12:52:08;7.03;;;4.68;;
46653;SDS011;38960;51.074;17.004;2023-09-08T12:54:34;9.18;;;4.78;;
46653;SDS011;38960;51.074;17.004;2023-09-08T12:57:01;8.15;;;4.20;;
46653;SDS011;38960;51.074;17.004;2023-09-08T12:59:26;7.45;;;4.25;;
46653;SDS011;38960;51.074;17.004;2023-09-08T13:01:52;6.15;;;4.55;;
46653;SDS011;38960;51.074;17.004;2023-09-08T13:04:18;6.63;;;5.15;;
46653;SDS011;38960;51.074;17.004;2023-09-08T13:06:44;8.75;;;4.30;;
46653;SDS011;38960;51.074;17.004;2023-09-08T13:09:10;6.28;;;4.88;;
46653;SDS011;38960;51.074;17.004;2023-09-08T13:11:36;6.93;;;4.82;;
46653;SDS011;38960;51.074;17.004;2023-09-08T13:14:01;5.78;;;4.63;;
46653;SDS011;38960;51.074;17.004;2023-09-08T13:16:27;6.20;;;4.43;;
46653;SDS011;38960;51.074;17.004;2023-09-08T13:18:52;8.38;;;4.68;;
46653;SDS011;38960;51.074;17.004;2023-09-08T13:21:18;12.05;;;4.97;;
46653;SDS011;38960;51.074;17.004;2023-09-08T13:23:43;7.30;;;4.47;;
46653;SDS011;38960;51.074;17.004;2023-09-08T13:26:09;6.45;;;4.30;;
46653;SDS011;38960;51.074;17.004;2023-09-08T13:28:34;9.90;;;4.55;;
46653;SDS011;38960;51.074;17.004;2023-09-08T13:31:00;5.93;;;4.35;;
46653;SDS011;38960;51.074;17.004;2023-09-08T13:33:25;6.63;;;4.90;;
46653;SDS011;38960;51.074;17.004;2023-09-08T13:35:51;10.13;;;4.53;;
46653;SDS011;38960;51.074;17.004;2023-09-08T13:38:17;10.07;;;5.03;;
46653;SDS011;38960;51.074;17.004;2023-09-08T13:40:43;8.77;;;4.13;;
46653;SDS011;38960;51.074;17.004;2023-09-08T13:43:08;6.35;;;4.40;;
46653;SDS011;38960;51.074;17.004;2023-09-08T13:45:36;7.05;;;4.40;;
46653;SDS011;38960;51.074;17.004;2023-09-08T13:48:01;7.13;;;4.18;;
46653;SDS011;38960;51.074;17.004;2023-09-08T13:50:29;5.32;;;4.20;;
46653;SDS011;38960;51.074;17.004;2023-09-08T13:52:55;5.07;;;4.10;;
46653;SDS011;38960;51.074;17.004;2023-09-08T13:55:20;6.03;;;4.43;;
46653;SDS011;38960;51.074;17.004;2023-09-08T13:57:49;6.20;;;4.45;;
46653;SDS011;38960;51.074;17.004;2023-09-08T14:00:15;10.73;;;5.63;;
46653;SDS011;38960;51.074;17.004;2023-09-08T14:02:44;6.50;;;4.22;;
46653;SDS011;38960;51.074;17.004;2023-09-08T14:05:09;6.80;;;4.03;;
46653;SDS011;38960;51.074;17.004;2023-09-08T14:07:35;6.75;;;4.30;;
46653;SDS011;38960;51.074;17.004;2023-09-08T14:10:01;5.72;;;3.95;;
46653;SDS011;38960;51.074;17.004;2023-09-08T14:12:26;9.50;;;4.05;;
46653;SDS011;38960;51.074;17.004;2023-09-08T14:14:52;9.15;;;4.35;;
46653;SDS011;38960;51.074;17.004;2023-09-08T14:17:17;5.53;;;3.95;;
46653;SDS011;38960;51.074;17.004;2023-09-08T14:19:43;7.00;;;4.15;;
46653;SDS011;38960;51.074;17.004;2023-09-08T14:22:08;9.70;;;5.38;;
46653;SDS011;38960;51.074;17.004;2023-09-08T14:24:34;10.00;;;4.50;;
46653;SDS011;38960;51.074;17.004;2023-09-08T14:27:00;5.53;;;4.15;;
46653;SDS011;38960;51.074;17.004;2023-09-08T14:29:25;5.18;;;3.75;;
46653;SDS011;38960;51.074;17.004;2023-09-08T14:31:51;8.30;;;4.05;;